createdAt,value
2022-09-28T00:03:12.528Z,1.42
2022-09-28T00:07:14.234Z,1.00
2022-09-28T00:11:17.603Z,1.40
2022-09-28T00:15:19.241Z,1.08
2022-09-28T00:19:20.794Z,1.42
2022-09-28T00:23:22.393Z,1.10
2022-09-28T00:27:23.984Z,1.48
2022-09-28T00:31:28.027Z,0.95
2022-09-28T00:35:29.730Z,1.00
2022-09-28T00:39:31.718Z,1.45
2022-09-28T00:43:33.376Z,1.20
2022-09-28T00:47:42.886Z,1.17
2022-09-28T00:51:45.440Z,1.40
2022-09-28T00:56:03.602Z,1.20
2022-09-28T01:00:06.103Z,1.00
2022-09-28T01:04:07.899Z,0.85
2022-09-28T01:08:11.226Z,0.98
2022-09-28T01:12:13.013Z,1.25
2022-09-28T01:16:32.208Z,1.17
2022-09-28T01:20:55.757Z,1.42
2022-09-28T01:25:31.369Z,1.20
2022-09-28T01:30:04.449Z,1.10
2022-09-28T01:34:17.502Z,1.30
2022-09-28T01:38:23.632Z,1.67
2022-09-28T01:42:30.418Z,1.05
2022-09-28T01:46:52.323Z,0.77
2022-09-28T01:50:57.991Z,1.30
2022-09-28T01:55:24.817Z,0.90
2022-09-28T01:59:29.443Z,1.15
2022-09-28T02:03:39.738Z,1.10
2022-09-28T02:07:48.471Z,1.38
2022-09-28T02:11:56.111Z,1.25
2022-09-28T02:16:07.358Z,1.05
2022-09-28T02:20:10.601Z,1.23
2022-09-28T02:24:53.330Z,1.10
2022-09-28T02:28:55.162Z,0.80
2022-09-28T02:33:02.495Z,1.02
2022-09-28T02:37:04.140Z,0.85
2022-09-28T02:41:39.669Z,0.80
2022-09-28T02:46:16.408Z,1.35
2022-09-28T02:50:30.217Z,1.17
2022-09-28T02:54:58.825Z,1.00
2022-09-28T02:59:28.549Z,0.88
2022-09-28T03:03:55.465Z,1.10
2022-09-28T03:08:06.470Z,0.82
2022-09-28T03:12:11.401Z,0.93
2022-09-28T03:16:16.488Z,1.10
2022-09-28T03:20:18.562Z,1.13
2022-09-28T03:24:20.105Z,0.77
2022-09-28T03:28:22.065Z,1.00
2022-09-28T03:32:23.907Z,1.00
2022-09-28T03:36:25.618Z,1.05
2022-09-28T03:40:27.282Z,0.90
2022-09-28T03:44:28.902Z,0.85
2022-09-28T03:48:33.092Z,1.27
2022-09-28T03:52:34.771Z,1.15
2022-09-28T03:56:36.431Z,0.82
2022-09-28T04:00:38.860Z,0.95
2022-09-28T04:04:40.418Z,1.05
2022-09-28T04:08:43.213Z,1.10
2022-09-28T04:12:45.881Z,1.00
2022-09-28T04:16:48.073Z,1.13
2022-09-28T04:20:59.222Z,1.00
2022-09-28T04:25:00.781Z,0.90
2022-09-28T04:29:17.913Z,1.00
2022-09-28T04:33:20.566Z,0.98
2022-09-28T04:37:22.182Z,1.00
2022-09-28T04:41:23.792Z,1.27
2022-09-28T04:45:28.544Z,0.90
2022-09-28T04:49:30.331Z,1.25
2022-09-28T04:53:32.553Z,0.90
2022-09-28T04:57:35.327Z,0.98
2022-09-28T05:01:37.338Z,1.10
2022-09-28T05:05:44.659Z,0.93
2022-09-28T05:09:46.209Z,1.05
2022-09-28T05:13:48.786Z,0.93
2022-09-28T05:17:53.053Z,0.77
2022-09-28T05:21:57.854Z,0.75
2022-09-28T05:26:01.756Z,1.58
2022-09-28T05:30:03.543Z,1.33
2022-09-28T05:34:05.139Z,1.30
2022-09-28T05:38:06.714Z,1.27
2022-09-28T05:42:08.257Z,1.42
2022-09-28T05:46:09.824Z,1.45
2022-09-28T05:50:11.905Z,1.58
2022-09-28T05:54:13.494Z,1.85
2022-09-28T05:58:15.374Z,1.83
2022-09-28T06:02:17.051Z,1.80
2022-09-28T06:06:18.724Z,1.85
2022-09-28T06:10:20.323Z,2.05
2022-09-28T06:14:22.198Z,1.83
2022-09-28T06:18:23.930Z,1.60
2022-09-28T06:22:25.459Z,1.75
2022-09-28T06:26:27.285Z,1.48
2022-09-28T06:30:32.893Z,1.80
2022-09-28T06:34:34.881Z,2.17
2022-09-28T06:38:36.685Z,1.80
2022-09-28T06:42:38.229Z,2.20
2022-09-28T06:46:52.327Z,2.00
2022-09-28T06:50:54.003Z,1.90
2022-09-28T06:54:55.570Z,1.90
2022-09-28T06:58:57.147Z,1.88
2022-09-28T07:02:58.681Z,1.92
2022-09-28T07:07:00.219Z,1.63
2022-09-28T07:11:06.159Z,1.60
2022-09-28T07:15:09.041Z,2.10
2022-09-28T07:23:28.499Z,2.42
2022-09-28T07:27:30.017Z,1.63
2022-09-28T07:31:33.640Z,2.10
2022-09-28T07:35:35.247Z,1.85
2022-09-28T07:39:56.903Z,2.08
2022-09-28T07:44:05.923Z,1.90
2022-09-28T07:48:07.489Z,2.00
2022-09-28T07:52:10.635Z,2.15
2022-09-28T07:56:13.960Z,2.13
2022-09-28T08:00:15.822Z,2.13
2022-09-28T08:04:17.873Z,2.35
2022-09-28T08:08:20.141Z,1.77
2022-09-28T08:12:22.060Z,1.90
2022-09-28T08:16:23.775Z,2.05
2022-09-28T08:20:47.009Z,1.88
2022-09-28T08:24:51.048Z,2.05
2022-09-28T08:28:52.634Z,2.00
2022-09-28T08:32:54.206Z,2.58
2022-09-28T08:36:59.100Z,2.15
2022-09-28T08:41:24.393Z,1.98
2022-09-28T08:45:28.888Z,2.30
2022-09-28T08:49:45.200Z,2.00
2022-09-28T08:57:58.921Z,1.75
2022-09-28T09:02:11.306Z,2.30
2022-09-28T09:06:34.376Z,1.70
2022-09-28T09:11:05.179Z,2.10
2022-09-28T09:15:57.712Z,2.08
2022-09-28T09:20:18.771Z,1.65
2022-09-28T09:24:26.974Z,2.17
2022-09-28T09:28:49.394Z,2.13
2022-09-28T09:33:10.166Z,1.70
2022-09-28T09:37:16.628Z,2.00
2022-09-28T09:41:39.101Z,1.85
2022-09-28T09:46:05.863Z,1.90
2022-09-28T09:50:45.278Z,1.80
2022-09-28T09:54:59.457Z,1.73
2022-09-28T09:59:10.935Z,1.60
2022-09-28T10:03:29.019Z,1.30
2022-09-28T10:07:58.302Z,1.60
2022-09-28T10:12:00.552Z,2.17
2022-09-28T10:16:02.373Z,1.85
2022-09-28T10:20:04.501Z,1.88
2022-09-28T10:24:08.542Z,1.65
2022-09-28T10:28:17.665Z,1.75
2022-09-28T10:32:25.482Z,1.42
2022-09-28T10:36:28.213Z,1.73
2022-09-28T10:40:55.264Z,1.80
2022-09-28T10:45:04.582Z,1.50
2022-09-28T10:49:17.138Z,1.70
2022-09-28T10:53:21.528Z,1.77
2022-09-28T10:57:34.933Z,1.58
2022-09-28T11:01:36.571Z,1.70
2022-09-28T11:05:38.670Z,1.70
2022-09-28T11:09:45.170Z,1.30
2022-09-28T11:13:51.424Z,1.38
2022-09-28T11:17:53.310Z,1.50
2022-09-28T11:21:54.965Z,1.48
2022-09-28T11:26:05.651Z,1.50
2022-09-28T11:30:31.057Z,1.75
2022-09-28T11:34:59.535Z,1.95
2022-09-28T11:39:22.935Z,1.10
2022-09-28T11:44:11.781Z,1.90
2022-09-28T11:48:17.477Z,1.35
2022-09-28T11:52:27.458Z,1.85
2022-09-28T11:56:50.495Z,1.50
2022-09-28T12:01:25.775Z,1.40
2022-09-28T12:05:59.514Z,1.48
2022-09-28T12:10:13.124Z,1.35
2022-09-28T12:14:26.347Z,1.40
2022-09-28T12:18:50.585Z,1.90
2022-09-28T12:23:07.299Z,1.40
2022-09-28T12:27:24.789Z,2.00
2022-09-28T12:31:37.229Z,2.13
2022-09-28T12:35:52.464Z,1.80
2022-09-28T12:40:06.261Z,1.85
2022-09-28T12:44:41.693Z,1.80
2022-09-28T12:54:01.717Z,2.00
2022-09-28T12:58:24.780Z,2.75
2022-09-28T13:02:53.415Z,2.00
2022-09-28T13:07:07.027Z,2.58
2022-09-28T13:11:33.086Z,2.30
2022-09-28T13:15:56.567Z,2.45
2022-09-28T13:19:59.299Z,2.33
2022-09-28T13:24:27.762Z,2.40
2022-09-28T13:28:28.283Z,2.80
2022-09-28T13:32:32.470Z,2.80
2022-09-28T13:36:36.951Z,2.72
2022-09-28T13:41:03.732Z,2.75
2022-09-28T13:45:24.980Z,2.63
2022-09-28T13:49:32.664Z,3.00
2022-09-28T13:54:18.974Z,2.95
2022-09-28T13:58:29.092Z,3.80
2022-09-28T14:02:40.870Z,3.20
2022-09-28T14:06:51.344Z,3.67
2022-09-28T14:11:24.985Z,3.47
2022-09-28T14:15:29.636Z,3.75
2022-09-28T14:19:34.161Z,3.67
2022-09-28T14:24:02.887Z,4.13
2022-09-28T14:28:29.858Z,3.88
2022-09-28T14:32:37.176Z,3.85
2022-09-28T14:37:05.968Z,4.05
2022-09-28T14:41:17.685Z,4.63
2022-09-28T14:45:20.471Z,4.30
2022-09-28T14:49:25.259Z,4.13
2022-09-28T14:53:26.856Z,3.85
2022-09-28T14:57:30.875Z,4.07
2022-09-28T15:01:35.100Z,4.45
2022-09-28T15:05:43.907Z,4.40
2022-09-28T15:09:49.543Z,4.18
2022-09-28T15:14:04.367Z,4.75
2022-09-28T15:18:09.067Z,5.00
2022-09-28T15:22:17.966Z,4.95
2022-09-28T15:26:31.039Z,5.18
2022-09-28T15:30:36.496Z,4.65
2022-09-28T15:34:54.522Z,5.05
2022-09-28T15:39:00.484Z,5.25
2022-09-28T15:43:03.714Z,5.22
2022-09-28T15:47:25.136Z,5.47
2022-09-28T15:51:28.266Z,5.40
2022-09-28T15:55:37.282Z,5.75
2022-09-28T15:59:40.922Z,5.50
2022-09-28T16:03:42.771Z,5.03
2022-09-28T16:07:56.088Z,5.72
2022-09-28T16:11:59.051Z,5.57
2022-09-28T16:16:00.998Z,5.55
2022-09-28T16:20:18.283Z,5.60
2022-09-28T16:24:23.982Z,6.10
2022-09-28T16:28:25.506Z,5.63
2022-09-28T16:32:27.036Z,5.85
2022-09-28T16:36:42.602Z,5.82
2022-09-28T16:40:49.586Z,5.73
2022-09-28T16:44:51.287Z,5.85
2022-09-28T16:48:53.189Z,6.45
2022-09-28T16:53:19.610Z,6.15
2022-09-28T16:57:21.164Z,6.10
2022-09-28T17:01:23.896Z,6.60
2022-09-28T17:05:25.529Z,6.47
2022-09-28T17:09:28.405Z,6.25
2022-09-28T17:13:36.143Z,5.97
2022-09-28T17:17:39.122Z,6.15
2022-09-28T17:21:40.649Z,6.93
2022-09-28T17:25:43.141Z,6.57
2022-09-28T17:29:44.698Z,6.30
2022-09-28T17:33:50.032Z,6.97
2022-09-28T17:37:51.610Z,5.83
2022-09-28T17:41:53.274Z,5.88
2022-09-28T17:45:54.923Z,6.25
2022-09-28T17:49:58.457Z,6.13
2022-09-28T17:54:01.197Z,5.97
2022-09-28T17:58:16.848Z,5.95
2022-09-28T18:02:18.637Z,6.63
2022-09-28T18:06:22.622Z,6.32
2022-09-28T18:10:26.273Z,5.97
2022-09-28T18:14:28.460Z,6.38
2022-09-28T18:18:30.915Z,6.50
2022-09-28T18:22:32.588Z,7.43
2022-09-28T18:26:34.274Z,6.95
2022-09-28T18:30:39.934Z,6.45
2022-09-28T18:34:41.638Z,7.18
2022-09-28T18:38:43.280Z,7.22
2022-09-28T18:42:44.920Z,7.22
2022-09-28T18:46:46.770Z,7.50
2022-09-28T18:50:48.401Z,7.13
2022-09-28T18:54:50.652Z,7.32
2022-09-28T18:58:52.588Z,7.45
2022-09-28T19:02:54.931Z,7.60
2022-09-28T19:06:56.737Z,8.20
2022-09-28T19:11:09.417Z,7.30
2022-09-28T19:15:11.054Z,7.88
2022-09-28T19:19:14.772Z,7.30
2022-09-28T19:23:16.384Z,7.72
2022-09-28T19:27:18.129Z,7.43
2022-09-28T19:31:20.321Z,7.40
2022-09-28T19:35:22.359Z,7.78
2022-09-28T19:39:24.261Z,7.47
2022-09-28T19:43:26.667Z,8.05
2022-09-28T19:47:28.270Z,7.85
2022-09-28T19:51:30.051Z,7.05
2022-09-28T19:55:37.187Z,7.20
2022-09-28T19:59:39.100Z,7.45
2022-09-28T20:03:40.698Z,7.63
2022-09-28T20:07:42.803Z,7.50
2022-09-28T20:11:45.583Z,6.90
2022-09-28T20:15:48.225Z,7.10
2022-09-28T20:19:51.661Z,7.35
2022-09-28T20:23:53.576Z,7.78
2022-09-28T20:27:55.201Z,7.63
2022-09-28T20:31:57.337Z,7.47
2022-09-28T20:36:08.286Z,8.10
2022-09-28T20:40:10.902Z,6.95
2022-09-28T20:44:12.514Z,7.20
2022-09-28T20:48:14.103Z,7.50
2022-09-28T20:52:16.394Z,7.45
2022-09-28T20:56:26.282Z,7.00
2022-09-28T21:00:27.875Z,7.22
2022-09-28T21:04:30.625Z,7.50
2022-09-28T21:08:32.541Z,6.65
2022-09-28T21:12:34.216Z,6.78
2022-09-28T21:16:35.916Z,7.20
2022-09-28T21:20:50.969Z,6.90
2022-09-28T21:24:52.553Z,7.47
2022-09-28T21:28:55.663Z,7.55
2022-09-28T21:32:57.696Z,6.20
2022-09-28T21:36:59.277Z,7.13
2022-09-28T21:41:01.053Z,6.18
2022-09-28T21:45:04.310Z,6.68
2022-09-28T21:49:07.489Z,6.57
2022-09-28T21:53:09.089Z,6.50
2022-09-28T21:57:10.755Z,6.07
2022-09-28T22:01:15.446Z,6.93
2022-09-28T22:05:17.496Z,6.68
2022-09-28T22:09:19.143Z,6.80
2022-09-28T22:13:20.912Z,6.05
2022-09-28T22:17:22.655Z,6.85
2022-09-28T22:21:24.583Z,6.03
2022-09-28T22:25:26.185Z,6.13
2022-09-28T22:29:27.829Z,5.50
2022-09-28T22:33:29.488Z,6.32
2022-09-28T22:37:32.860Z,5.90
2022-09-28T22:41:35.438Z,6.38
2022-09-28T22:45:36.986Z,6.05
2022-09-28T22:49:38.764Z,6.07
2022-09-28T22:53:40.395Z,5.90
2022-09-28T22:57:41.986Z,5.97
2022-09-28T23:01:43.633Z,5.68
2022-09-28T23:05:55.898Z,5.68
2022-09-28T23:09:59.690Z,5.90
2022-09-28T23:14:01.316Z,5.93
2022-09-28T23:18:03.086Z,4.97
2022-09-28T23:22:04.759Z,5.28
2022-09-28T23:26:21.388Z,5.57
2022-09-28T23:30:24.788Z,5.50
2022-09-28T23:34:26.367Z,5.40
2022-09-28T23:38:28.015Z,5.30
2022-09-28T23:42:29.686Z,5.53
2022-09-28T23:46:31.886Z,5.70
2022-09-28T23:50:33.509Z,5.63
2022-09-28T23:54:35.110Z,4.63
2022-09-28T23:58:36.759Z,5.25
